sensor_id;sensor_type;location;lat;lon;timestamp;P1;durP1;ratioP1;P2;durP2;ratioP2
12208;SDS011;6167;43.080;25.634;2023-08-30T00:01:25;7.85;;;7.05;;
12208;SDS011;6167;43.080;25.634;2023-08-30T00:03:51;8.60;;;7.05;;
12208;SDS011;6167;43.080;25.634;2023-08-30T00:06:18;8.80;;;7.00;;
12208;SDS011;6167;43.080;25.634;2023-08-30T00:08:46;7.57;;;6.63;;
12208;SDS011;6167;43.080;25.634;2023-08-30T00:11:13;8.05;;;6.60;;
12208;SDS011;6167;43.080;25.634;2023-08-30T00:13:40;8.15;;;6.75;;
12208;SDS011;6167;43.080;25.634;2023-08-30T00:16:07;11.85;;;7.45;;
12208;SDS011;6167;43.080;25.634;2023-08-30T00:18:34;9.13;;;6.97;;
12208;SDS011;6167;43.080;25.634;2023-08-30T00:21:00;8.00;;;7.28;;
12208;SDS011;6167;43.080;25.634;2023-08-30T00:23:27;9.70;;;7.32;;
12208;SDS011;6167;43.080;25.634;2023-08-30T00:25:55;9.63;;;7.15;;
12208;SDS011;6167;43.080;25.634;2023-08-30T00:28:21;8.68;;;7.88;;
12208;SDS011;6167;43.080;25.634;2023-08-30T00:30:52;10.52;;;7.60;;
12208;SDS011;6167;43.080;25.634;2023-08-30T00:33:18;9.98;;;7.43;;
12208;SDS011;6167;43.080;25.634;2023-08-30T00:35:45;9.10;;;7.05;;
12208;SDS011;6167;43.080;25.634;2023-08-30T00:38:11;8.35;;;7.45;;
12208;SDS011;6167;43.080;25.634;2023-08-30T00:40:38;8.27;;;7.30;;
12208;SDS011;6167;43.080;25.634;2023-08-30T00:43:07;9.68;;;8.65;;
12208;SDS011;6167;43.080;25.634;2023-08-30T00:45:34;11.10;;;9.15;;
12208;SDS011;6167;43.080;25.634;2023-08-30T00:48:01;11.02;;;9.30;;
12208;SDS011;6167;43.080;25.634;2023-08-30T00:50:27;10.32;;;8.18;;
12208;SDS011;6167;43.080;25.634;2023-08-30T00:52:54;10.27;;;8.00;;
12208;SDS011;6167;43.080;25.634;2023-08-30T00:55:20;11.15;;;8.13;;
12208;SDS011;6167;43.080;25.634;2023-08-30T00:57:47;10.20;;;8.07;;
12208;SDS011;6167;43.080;25.634;2023-08-30T01:00:15;10.20;;;8.00;;
12208;SDS011;6167;43.080;25.634;2023-08-30T01:02:42;9.07;;;7.97;;
12208;SDS011;6167;43.080;25.634;2023-08-30T01:05:09;7.50;;;6.70;;
12208;SDS011;6167;43.080;25.634;2023-08-30T01:07:36;10.70;;;7.70;;
12208;SDS011;6167;43.080;25.634;2023-08-30T01:10:02;9.32;;;7.40;;
12208;SDS011;6167;43.080;25.634;2023-08-30T01:12:31;9.55;;;7.85;;
12208;SDS011;6167;43.080;25.634;2023-08-30T01:15:02;10.93;;;7.93;;
12208;SDS011;6167;43.080;25.634;2023-08-30T01:17:33;11.55;;;8.75;;
12208;SDS011;6167;43.080;25.634;2023-08-30T01:20:00;9.23;;;7.95;;
12208;SDS011;6167;43.080;25.634;2023-08-30T01:22:29;10.07;;;7.93;;
12208;SDS011;6167;43.080;25.634;2023-08-30T01:25:09;10.63;;;8.15;;
12208;SDS011;6167;43.080;25.634;2023-08-30T01:27:40;16.35;;;8.48;;
12208;SDS011;6167;43.080;25.634;2023-08-30T01:30:07;9.32;;;8.35;;
12208;SDS011;6167;43.080;25.634;2023-08-30T01:32:35;8.55;;;7.47;;
12208;SDS011;6167;43.080;25.634;2023-08-30T01:35:02;10.65;;;8.23;;
12208;SDS011;6167;43.080;25.634;2023-08-30T01:37:29;9.43;;;7.68;;
12208;SDS011;6167;43.080;25.634;2023-08-30T01:39:56;11.40;;;7.72;;
12208;SDS011;6167;43.080;25.634;2023-08-30T01:42:23;11.88;;;7.88;;
12208;SDS011;6167;43.080;25.634;2023-08-30T01:44:53;9.65;;;7.75;;
12208;SDS011;6167;43.080;25.634;2023-08-30T01:47:22;10.50;;;8.07;;
12208;SDS011;6167;43.080;25.634;2023-08-30T01:49:50;11.52;;;8.57;;
12208;SDS011;6167;43.080;25.634;2023-08-30T01:52:16;8.30;;;7.30;;
12208;SDS011;6167;43.080;25.634;2023-08-30T01:54:43;9.68;;;8.65;;
12208;SDS011;6167;43.080;25.634;2023-08-30T01:57:11;10.40;;;7.95;;
12208;SDS011;6167;43.080;25.634;2023-08-30T01:59:37;10.05;;;7.68;;
12208;SDS011;6167;43.080;25.634;2023-08-30T02:02:05;10.90;;;8.18;;
12208;SDS011;6167;43.080;25.634;2023-08-30T02:04:32;9.98;;;7.57;;
12208;SDS011;6167;43.080;25.634;2023-08-30T02:07:00;8.38;;;7.45;;
12208;SDS011;6167;43.080;25.634;2023-08-30T02:09:30;8.55;;;7.68;;
12208;SDS011;6167;43.080;25.634;2023-08-30T02:11:58;13.25;;;8.25;;
12208;SDS011;6167;43.080;25.634;2023-08-30T02:14:26;8.50;;;7.18;;
12208;SDS011;6167;43.080;25.634;2023-08-30T02:16:53;10.32;;;8.20;;
12208;SDS011;6167;43.080;25.634;2023-08-30T02:19:22;12.07;;;8.18;;
12208;SDS011;6167;43.080;25.634;2023-08-30T02:21:49;11.48;;;8.07;;
12208;SDS011;6167;43.080;25.634;2023-08-30T02:24:16;9.25;;;8.20;;
12208;SDS011;6167;43.080;25.634;2023-08-30T02:26:42;11.15;;;8.68;;
12208;SDS011;6167;43.080;25.634;2023-08-30T02:29:09;11.55;;;8.57;;
12208;SDS011;6167;43.080;25.634;2023-08-30T02:31:36;10.20;;;8.82;;
12208;SDS011;6167;43.080;25.634;2023-08-30T02:34:02;10.98;;;8.55;;
12208;SDS011;6167;43.080;25.634;2023-08-30T02:36:30;10.45;;;8.35;;
12208;SDS011;6167;43.080;25.634;2023-08-30T02:38:56;12.05;;;8.93;;
12208;SDS011;6167;43.080;25.634;2023-08-30T02:41:23;9.55;;;8.10;;
12208;SDS011;6167;43.080;25.634;2023-08-30T02:43:49;12.07;;;10.48;;
12208;SDS011;6167;43.080;25.634;2023-08-30T02:46:16;15.18;;;10.18;;
12208;SDS011;6167;43.080;25.634;2023-08-30T02:48:42;14.18;;;10.57;;
12208;SDS011;6167;43.080;25.634;2023-08-30T02:51:09;12.40;;;9.73;;
12208;SDS011;6167;43.080;25.634;2023-08-30T02:53:37;14.18;;;10.20;;
12208;SDS011;6167;43.080;25.634;2023-08-30T02:56:03;13.13;;;10.50;;
12208;SDS011;6167;43.080;25.634;2023-08-30T02:58:30;11.43;;;10.10;;
12208;SDS011;6167;43.080;25.634;2023-08-30T03:00:56;14.55;;;11.02;;
12208;SDS011;6167;43.080;25.634;2023-08-30T03:03:23;15.30;;;11.13;;
12208;SDS011;6167;43.080;25.634;2023-08-30T03:05:49;12.82;;;10.15;;
12208;SDS011;6167;43.080;25.634;2023-08-30T03:08:16;11.45;;;10.25;;
12208;SDS011;6167;43.080;25.634;2023-08-30T03:10:44;11.45;;;9.98;;
12208;SDS011;6167;43.080;25.634;2023-08-30T03:13:10;13.70;;;9.90;;
12208;SDS011;6167;43.080;25.634;2023-08-30T03:15:37;12.63;;;9.30;;
12208;SDS011;6167;43.080;25.634;2023-08-30T03:18:03;14.20;;;8.77;;
12208;SDS011;6167;43.080;25.634;2023-08-30T03:20:30;17.10;;;10.52;;
12208;SDS011;6167;43.080;25.634;2023-08-30T03:22:56;16.60;;;10.40;;
12208;SDS011;6167;43.080;25.634;2023-08-30T03:25:23;13.63;;;9.77;;
12208;SDS011;6167;43.080;25.634;2023-08-30T03:27:51;13.35;;;9.57;;
12208;SDS011;6167;43.080;25.634;2023-08-30T03:30:18;14.70;;;9.82;;
12208;SDS011;6167;43.080;25.634;2023-08-30T03:32:44;11.68;;;9.02;;
12208;SDS011;6167;43.080;25.634;2023-08-30T03:35:11;11.35;;;9.43;;
12208;SDS011;6167;43.080;25.634;2023-08-30T03:37:40;11.50;;;9.63;;
12208;SDS011;6167;43.080;25.634;2023-08-30T03:40:06;12.70;;;9.02;;
12208;SDS011;6167;43.080;25.634;2023-08-30T03:42:34;10.02;;;8.95;;
12208;SDS011;6167;43.080;25.634;2023-08-30T03:45:02;10.35;;;9.13;;
12208;SDS011;6167;43.080;25.634;2023-08-30T03:47:30;13.52;;;8.52;;
12208;SDS011;6167;43.080;25.634;2023-08-30T03:49:57;14.02;;;9.40;;
12208;SDS011;6167;43.080;25.634;2023-08-30T03:52:25;11.45;;;9.07;;
12208;SDS011;6167;43.080;25.634;2023-08-30T03:54:51;13.23;;;9.55;;
12208;SDS011;6167;43.080;25.634;2023-08-30T03:57:18;9.85;;;8.73;;
12208;SDS011;6167;43.080;25.634;2023-08-30T03:59:44;10.30;;;9.20;;
12208;SDS011;6167;43.080;25.634;2023-08-30T04:02:12;9.93;;;8.63;;
12208;SDS011;6167;43.080;25.634;2023-08-30T04:04:39;11.98;;;10.25;;
12208;SDS011;6167;43.080;25.634;2023-08-30T04:07:05;10.43;;;9.23;;
12208;SDS011;6167;43.080;25.634;2023-08-30T04:09:32;10.98;;;9.30;;
12208;SDS011;6167;43.080;25.634;2023-08-30T04:11:58;11.60;;;9.35;;
12208;SDS011;6167;43.080;25.634;2023-08-30T04:14:25;10.10;;;8.75;;
12208;SDS011;6167;43.080;25.634;2023-08-30T04:16:52;13.52;;;9.85;;
12208;SDS011;6167;43.080;25.634;2023-08-30T04:19:20;11.07;;;9.63;;
12208;SDS011;6167;43.080;25.634;2023-08-30T04:21:46;13.40;;;9.55;;
12208;SDS011;6167;43.080;25.634;2023-08-30T04:24:13;11.23;;;9.00;;
12208;SDS011;6167;43.080;25.634;2023-08-30T04:26:40;17.33;;;9.68;;
12208;SDS011;6167;43.080;25.634;2023-08-30T04:29:07;11.43;;;10.20;;
12208;SDS011;6167;43.080;25.634;2023-08-30T04:31:33;13.77;;;9.15;;
12208;SDS011;6167;43.080;25.634;2023-08-30T04:34:00;13.25;;;9.65;;
12208;SDS011;6167;43.080;25.634;2023-08-30T04:36:28;12.25;;;9.13;;
12208;SDS011;6167;43.080;25.634;2023-08-30T04:38:54;11.07;;;8.70;;
12208;SDS011;6167;43.080;25.634;2023-08-30T04:41:21;11.60;;;8.68;;
12208;SDS011;6167;43.080;25.634;2023-08-30T04:43:47;13.35;;;9.15;;
12208;SDS011;6167;43.080;25.634;2023-08-30T04:46:14;11.82;;;9.45;;
12208;SDS011;6167;43.080;25.634;2023-08-30T04:48:40;13.77;;;9.32;;
12208;SDS011;6167;43.080;25.634;2023-08-30T04:51:07;10.73;;;8.77;;
12208;SDS011;6167;43.080;25.634;2023-08-30T04:53:35;15.43;;;8.00;;
12208;SDS011;6167;43.080;25.634;2023-08-30T04:56:09;16.00;;;9.82;;
12208;SDS011;6167;43.080;25.634;2023-08-30T04:58:36;11.85;;;9.15;;
12208;SDS011;6167;43.080;25.634;2023-08-30T05:01:02;11.73;;;8.90;;
12208;SDS011;6167;43.080;25.634;2023-08-30T05:03:30;18.27;;;9.43;;
12208;SDS011;6167;43.080;25.634;2023-08-30T05:05:56;12.88;;;9.20;;
12208;SDS011;6167;43.080;25.634;2023-08-30T05:08:23;15.35;;;9.25;;
12208;SDS011;6167;43.080;25.634;2023-08-30T05:10:53;14.50;;;9.85;;
12208;SDS011;6167;43.080;25.634;2023-08-30T05:13:19;15.52;;;9.80;;
12208;SDS011;6167;43.080;25.634;2023-08-30T05:15:46;17.52;;;9.68;;
12208;SDS011;6167;43.080;25.634;2023-08-30T05:18:12;16.92;;;10.23;;
12208;SDS011;6167;43.080;25.634;2023-08-30T05:20:39;13.35;;;9.70;;
12208;SDS011;6167;43.080;25.634;2023-08-30T05:23:05;9.90;;;8.45;;
12208;SDS011;6167;43.080;25.634;2023-08-30T05:25:32;9.93;;;8.40;;
12208;SDS011;6167;43.080;25.634;2023-08-30T05:28:00;10.75;;;8.35;;
12208;SDS011;6167;43.080;25.634;2023-08-30T05:30:27;9.40;;;7.80;;
12208;SDS011;6167;43.080;25.634;2023-08-30T05:32:53;8.57;;;7.65;;
12208;SDS011;6167;43.080;25.634;2023-08-30T05:35:20;11.18;;;7.55;;
12208;SDS011;6167;43.080;25.634;2023-08-30T05:37:47;8.02;;;7.20;;
12208;SDS011;6167;43.080;25.634;2023-08-30T05:40:13;8.63;;;7.45;;
12208;SDS011;6167;43.080;25.634;2023-08-30T05:42:42;10.60;;;7.60;;
12208;SDS011;6167;43.080;25.634;2023-08-30T05:45:10;11.07;;;7.78;;
12208;SDS011;6167;43.080;25.634;2023-08-30T05:47:37;12.52;;;7.95;;
12208;SDS011;6167;43.080;25.634;2023-08-30T05:50:04;10.35;;;7.93;;
12208;SDS011;6167;43.080;25.634;2023-08-30T05:52:31;8.23;;;7.35;;
12208;SDS011;6167;43.080;25.634;2023-08-30T05:54:58;12.55;;;8.15;;
12208;SDS011;6167;43.080;25.634;2023-08-30T05:57:26;9.98;;;7.57;;
12208;SDS011;6167;43.080;25.634;2023-08-30T05:59:58;12.35;;;7.78;;
12208;SDS011;6167;43.080;25.634;2023-08-30T06:02:26;8.93;;;7.93;;
12208;SDS011;6167;43.080;25.634;2023-08-30T06:04:53;9.40;;;7.55;;
12208;SDS011;6167;43.080;25.634;2023-08-30T06:07:20;8.18;;;7.38;;
12208;SDS011;6167;43.080;25.634;2023-08-30T06:09:47;12.60;;;7.90;;
12208;SDS011;6167;43.080;25.634;2023-08-30T06:12:14;11.02;;;8.30;;
12208;SDS011;6167;43.080;25.634;2023-08-30T06:14:41;9.55;;;7.82;;
12208;SDS011;6167;43.080;25.634;2023-08-30T06:17:08;9.07;;;7.20;;
12208;SDS011;6167;43.080;25.634;2023-08-30T06:19:36;11.80;;;7.68;;
12208;SDS011;6167;43.080;25.634;2023-08-30T06:22:03;11.93;;;8.43;;
12208;SDS011;6167;43.080;25.634;2023-08-30T06:24:30;11.35;;;8.40;;
12208;SDS011;6167;43.080;25.634;2023-08-30T06:26:57;12.18;;;8.13;;
12208;SDS011;6167;43.080;25.634;2023-08-30T06:29:25;12.43;;;8.70;;
12208;SDS011;6167;43.080;25.634;2023-08-30T06:31:52;11.70;;;8.50;;
12208;SDS011;6167;43.080;25.634;2023-08-30T06:34:18;10.43;;;8.52;;
12208;SDS011;6167;43.080;25.634;2023-08-30T06:36:46;10.65;;;8.00;;
12208;SDS011;6167;43.080;25.634;2023-08-30T06:39:13;11.63;;;8.40;;
12208;SDS011;6167;43.080;25.634;2023-08-30T06:41:42;13.60;;;8.25;;
12208;SDS011;6167;43.080;25.634;2023-08-30T06:44:09;12.98;;;9.60;;
12208;SDS011;6167;43.080;25.634;2023-08-30T06:46:37;8.05;;;7.25;;
12208;SDS011;6167;43.080;25.634;2023-08-30T06:49:05;9.30;;;7.45;;
12208;SDS011;6167;43.080;25.634;2023-08-30T06:51:34;8.60;;;7.50;;
12208;SDS011;6167;43.080;25.634;2023-08-30T06:54:02;8.63;;;7.53;;
12208;SDS011;6167;43.080;25.634;2023-08-30T06:56:29;10.10;;;7.55;;
12208;SDS011;6167;43.080;25.634;2023-08-30T06:58:56;10.02;;;7.43;;
12208;SDS011;6167;43.080;25.634;2023-08-30T07:01:23;8.70;;;7.32;;
12208;SDS011;6167;43.080;25.634;2023-08-30T07:03:49;8.57;;;7.35;;
12208;SDS011;6167;43.080;25.634;2023-08-30T07:06:16;8.80;;;7.72;;
12208;SDS011;6167;43.080;25.634;2023-08-30T07:08:43;7.78;;;7.00;;
12208;SDS011;6167;43.080;25.634;2023-08-30T07:11:13;8.23;;;7.43;;
12208;SDS011;6167;43.080;25.634;2023-08-30T07:13:40;7.45;;;6.75;;
12208;SDS011;6167;43.080;25.634;2023-08-30T07:19:07;8.95;;;7.45;;
12208;SDS011;6167;43.080;25.634;2023-08-30T07:21:35;7.80;;;7.10;;
12208;SDS011;6167;43.080;25.634;2023-08-30T07:24:04;9.80;;;7.40;;
12208;SDS011;6167;43.080;25.634;2023-08-30T07:26:32;9.23;;;7.82;;
12208;SDS011;6167;43.080;25.634;2023-08-30T07:28:59;13.18;;;10.18;;
12208;SDS011;6167;43.080;25.634;2023-08-30T07:31:26;8.82;;;7.18;;
12208;SDS011;6167;43.080;25.634;2023-08-30T07:33:52;7.55;;;6.85;;
12208;SDS011;6167;43.080;25.634;2023-08-30T07:36:19;7.97;;;7.20;;
12208;SDS011;6167;43.080;25.634;2023-08-30T07:38:46;8.50;;;7.53;;
12208;SDS011;6167;43.080;25.634;2023-08-30T07:41:12;10.73;;;8.52;;
12208;SDS011;6167;43.080;25.634;2023-08-30T07:43:41;11.50;;;9.88;;
12208;SDS011;6167;43.080;25.634;2023-08-30T07:46:07;12.50;;;8.43;;
12208;SDS011;6167;43.080;25.634;2023-08-30T07:48:36;8.75;;;6.80;;
12208;SDS011;6167;43.080;25.634;2023-08-30T07:51:03;7.43;;;6.72;;
12208;SDS011;6167;43.080;25.634;2023-08-30T07:53:33;13.95;;;7.68;;
12208;SDS011;6167;43.080;25.634;2023-08-30T07:56:00;8.88;;;7.40;;
12208;SDS011;6167;43.080;25.634;2023-08-30T07:58:27;8.82;;;6.65;;
12208;SDS011;6167;43.080;25.634;2023-08-30T08:00:55;8.00;;;7.20;;
12208;SDS011;6167;43.080;25.634;2023-08-30T08:03:22;8.25;;;7.47;;
12208;SDS011;6167;43.080;25.634;2023-08-30T08:05:49;8.52;;;7.55;;
12208;SDS011;6167;43.080;25.634;2023-08-30T08:08:15;8.80;;;7.22;;
12208;SDS011;6167;43.080;25.634;2023-08-30T08:10:43;7.97;;;7.18;;
12208;SDS011;6167;43.080;25.634;2023-08-30T08:13:10;8.15;;;7.05;;
12208;SDS011;6167;43.080;25.634;2023-08-30T08:15:39;8.18;;;7.38;;
12208;SDS011;6167;43.080;25.634;2023-08-30T08:18:07;9.98;;;8.60;;
12208;SDS011;6167;43.080;25.634;2023-08-30T08:20:33;14.20;;;10.85;;
12208;SDS011;6167;43.080;25.634;2023-08-30T08:23:01;8.48;;;7.22;;
12208;SDS011;6167;43.080;25.634;2023-08-30T08:25:28;7.65;;;6.90;;
12208;SDS011;6167;43.080;25.634;2023-08-30T08:27:55;8.52;;;7.45;;
12208;SDS011;6167;43.080;25.634;2023-08-30T08:30:21;8.07;;;7.38;;
12208;SDS011;6167;43.080;25.634;2023-08-30T08:32:49;9.05;;;7.60;;
12208;SDS011;6167;43.080;25.634;2023-08-30T08:35:17;10.43;;;7.40;;
12208;SDS011;6167;43.080;25.634;2023-08-30T08:37:44;8.38;;;7.18;;
12208;SDS011;6167;43.080;25.634;2023-08-30T08:40:11;9.65;;;7.53;;
12208;SDS011;6167;43.080;25.634;2023-08-30T08:42:38;8.30;;;7.32;;
12208;SDS011;6167;43.080;25.634;2023-08-30T08:45:05;8.10;;;7.30;;
12208;SDS011;6167;43.080;25.634;2023-08-30T08:47:32;9.25;;;6.88;;
12208;SDS011;6167;43.080;25.634;2023-08-30T08:49:58;8.13;;;7.30;;
12208;SDS011;6167;43.080;25.634;2023-08-30T08:52:27;8.77;;;7.55;;
12208;SDS011;6167;43.080;25.634;2023-08-30T08:54:54;9.18;;;7.30;;
12208;SDS011;6167;43.080;25.634;2023-08-30T08:57:21;8.45;;;7.68;;
12208;SDS011;6167;43.080;25.634;2023-08-30T08:59:48;8.65;;;7.75;;
12208;SDS011;6167;43.080;25.634;2023-08-30T09:02:15;8.05;;;7.30;;
12208;SDS011;6167;43.080;25.634;2023-08-30T09:04:43;8.00;;;7.20;;
12208;SDS011;6167;43.080;25.634;2023-08-30T09:07:10;8.45;;;7.63;;
12208;SDS011;6167;43.080;25.634;2023-08-30T09:09:40;9.82;;;7.63;;
12208;SDS011;6167;43.080;25.634;2023-08-30T09:12:07;9.95;;;7.47;;
12208;SDS011;6167;43.080;25.634;2023-08-30T09:14:33;8.15;;;7.45;;
12208;SDS011;6167;43.080;25.634;2023-08-30T09:17:02;8.45;;;7.40;;
12208;SDS011;6167;43.080;25.634;2023-08-30T09:19:29;7.72;;;6.97;;
12208;SDS011;6167;43.080;25.634;2023-08-30T09:21:57;7.72;;;6.82;;
12208;SDS011;6167;43.080;25.634;2023-08-30T09:27:32;8.18;;;7.05;;
12208;SDS011;6167;43.080;25.634;2023-08-30T09:29:59;8.80;;;7.93;;
12208;SDS011;6167;43.080;25.634;2023-08-30T09:32:26;7.50;;;6.80;;
12208;SDS011;6167;43.080;25.634;2023-08-30T09:34:53;8.50;;;7.70;;
12208;SDS011;6167;43.080;25.634;2023-08-30T09:37:20;9.23;;;8.30;;
12208;SDS011;6167;43.080;25.634;2023-08-30T09:39:50;8.65;;;7.38;;
12208;SDS011;6167;43.080;25.634;2023-08-30T09:42:18;9.48;;;7.38;;
12208;SDS011;6167;43.080;25.634;2023-08-30T09:44:46;11.93;;;8.13;;
12208;SDS011;6167;43.080;25.634;2023-08-30T09:47:13;18.08;;;12.63;;
12208;SDS011;6167;43.080;25.634;2023-08-30T09:49:42;9.63;;;8.52;;
12208;SDS011;6167;43.080;25.634;2023-08-30T09:52:09;8.60;;;7.75;;
12208;SDS011;6167;43.080;25.634;2023-08-30T09:54:36;8.88;;;7.07;;
12208;SDS011;6167;43.080;25.634;2023-08-30T09:57:06;7.80;;;7.03;;
12208;SDS011;6167;43.080;25.634;2023-08-30T09:59:33;9.93;;;7.53;;
12208;SDS011;6167;43.080;25.634;2023-08-30T10:02:01;9.45;;;8.52;;
12208;SDS011;6167;43.080;25.634;2023-08-30T10:04:29;9.27;;;8.15;;
12208;SDS011;6167;43.080;25.634;2023-08-30T10:09:43;7.45;;;6.75;;
12208;SDS011;6167;43.080;25.634;2023-08-30T10:12:10;7.78;;;7.05;;
12208;SDS011;6167;43.080;25.634;2023-08-30T10:14:36;7.85;;;7.25;;
12208;SDS011;6167;43.080;25.634;2023-08-30T10:17:05;8.50;;;7.40;;
12208;SDS011;6167;43.080;25.634;2023-08-30T10:19:33;13.20;;;10.98;;
12208;SDS011;6167;43.080;25.634;2023-08-30T10:22:01;9.15;;;8.27;;
12208;SDS011;6167;43.080;25.634;2023-08-30T10:24:29;8.63;;;7.70;;
12208;SDS011;6167;43.080;25.634;2023-08-30T10:26:57;8.20;;;7.43;;
12208;SDS011;6167;43.080;25.634;2023-08-30T10:29:24;8.50;;;7.65;;
12208;SDS011;6167;43.080;25.634;2023-08-30T10:31:52;8.77;;;7.75;;
12208;SDS011;6167;43.080;25.634;2023-08-30T10:34:20;9.95;;;9.05;;
12208;SDS011;6167;43.080;25.634;2023-08-30T10:36:56;9.05;;;8.15;;
12208;SDS011;6167;43.080;25.634;2023-08-30T10:39:27;7.28;;;6.68;;
12208;SDS011;6167;43.080;25.634;2023-08-30T10:41:54;8.50;;;7.57;;
12208;SDS011;6167;43.080;25.634;2023-08-30T10:44:21;8.82;;;7.47;;
12208;SDS011;6167;43.080;25.634;2023-08-30T10:46:51;8.73;;;7.40;;
12208;SDS011;6167;43.080;25.634;2023-08-30T10:49:18;8.45;;;7.65;;
12208;SDS011;6167;43.080;25.634;2023-08-30T10:51:54;8.48;;;7.45;;
12208;SDS011;6167;43.080;25.634;2023-08-30T10:54:20;8.60;;;7.63;;
12208;SDS011;6167;43.080;25.634;2023-08-30T10:56:53;8.75;;;7.85;;
12208;SDS011;6167;43.080;25.634;2023-08-30T10:59:21;8.95;;;8.15;;
12208;SDS011;6167;43.080;25.634;2023-08-30T11:01:48;13.23;;;10.27;;
12208;SDS011;6167;43.080;25.634;2023-08-30T11:04:16;8.80;;;7.53;;
12208;SDS011;6167;43.080;25.634;2023-08-30T11:06:43;9.32;;;7.45;;
12208;SDS011;6167;43.080;25.634;2023-08-30T11:09:16;9.98;;;7.70;;
12208;SDS011;6167;43.080;25.634;2023-08-30T11:11:46;8.82;;;7.90;;
12208;SDS011;6167;43.080;25.634;2023-08-30T11:14:13;8.52;;;7.70;;
12208;SDS011;6167;43.080;25.634;2023-08-30T11:16:40;9.57;;;8.48;;
12208;SDS011;6167;43.080;25.634;2023-08-30T11:19:07;8.50;;;7.70;;
12208;SDS011;6167;43.080;25.634;2023-08-30T11:21:36;9.35;;;8.43;;
12208;SDS011;6167;43.080;25.634;2023-08-30T11:24:03;10.68;;;9.65;;
12208;SDS011;6167;43.080;25.634;2023-08-30T11:26:31;8.27;;;7.38;;
12208;SDS011;6167;43.080;25.634;2023-08-30T11:29:03;8.18;;;7.25;;
12208;SDS011;6167;43.080;25.634;2023-08-30T11:31:30;8.35;;;7.53;;
12208;SDS011;6167;43.080;25.634;2023-08-30T11:33:57;8.38;;;7.45;;
12208;SDS011;6167;43.080;25.634;2023-08-30T11:36:27;8.27;;;7.40;;
12208;SDS011;6167;43.080;25.634;2023-08-30T11:38:54;7.63;;;6.80;;
12208;SDS011;6167;43.080;25.634;2023-08-30T11:41:21;8.48;;;7.63;;
12208;SDS011;6167;43.080;25.634;2023-08-30T11:43:50;10.25;;;7.43;;
12208;SDS011;6167;43.080;25.634;2023-08-30T11:46:17;7.95;;;7.22;;
12208;SDS011;6167;43.080;25.634;2023-08-30T11:48:43;10.48;;;7.07;;
12208;SDS011;6167;43.080;25.634;2023-08-30T11:51:11;8.63;;;7.70;;
12208;SDS011;6167;43.080;25.634;2023-08-30T11:53:38;7.65;;;7.03;;
12208;SDS011;6167;43.080;25.634;2023-08-30T11:56:05;8.57;;;7.28;;
12208;SDS011;6167;43.080;25.634;2023-08-30T11:58:32;9.18;;;7.55;;
12208;SDS011;6167;43.080;25.634;2023-08-30T12:01:01;9.80;;;7.30;;
12208;SDS011;6167;43.080;25.634;2023-08-30T12:03:28;8.00;;;7.07;;
12208;SDS011;6167;43.080;25.634;2023-08-30T12:05:55;8.40;;;7.70;;
12208;SDS011;6167;43.080;25.634;2023-08-30T12:08:23;10.77;;;7.53;;
12208;SDS011;6167;43.080;25.634;2023-08-30T12:10:50;12.20;;;7.95;;
12208;SDS011;6167;43.080;25.634;2023-08-30T12:13:21;7.60;;;6.90;;
12208;SDS011;6167;43.080;25.634;2023-08-30T12:15:48;8.02;;;7.30;;
12208;SDS011;6167;43.080;25.634;2023-08-30T12:18:16;8.13;;;7.30;;
12208;SDS011;6167;43.080;25.634;2023-08-30T12:20:53;8.23;;;7.32;;
12208;SDS011;6167;43.080;25.634;2023-08-30T12:23:20;8.35;;;7.65;;
12208;SDS011;6167;43.080;25.634;2023-08-30T12:25:56;8.50;;;7.78;;
12208;SDS011;6167;43.080;25.634;2023-08-30T12:28:23;8.07;;;7.30;;
12208;SDS011;6167;43.080;25.634;2023-08-30T12:30:50;9.13;;;7.60;;
12208;SDS011;6167;43.080;25.634;2023-08-30T12:33:23;7.82;;;7.13;;
12208;SDS011;6167;43.080;25.634;2023-08-30T12:35:50;8.07;;;7.40;;
12208;SDS011;6167;43.080;25.634;2023-08-30T12:38:25;8.80;;;7.75;;
12208;SDS011;6167;43.080;25.634;2023-08-30T12:40:52;8.35;;;7.38;;
12208;SDS011;6167;43.080;25.634;2023-08-30T12:43:20;8.63;;;7.72;;
12208;SDS011;6167;43.080;25.634;2023-08-30T12:45:47;8.13;;;7.28;;
12208;SDS011;6167;43.080;25.634;2023-08-30T12:48:13;7.70;;;7.00;;
12208;SDS011;6167;43.080;25.634;2023-08-30T12:50:43;8.52;;;7.60;;
12208;SDS011;6167;43.080;25.634;2023-08-30T12:53:10;8.27;;;7.43;;
12208;SDS011;6167;43.080;25.634;2023-08-30T12:55:37;8.98;;;7.85;;
12208;SDS011;6167;43.080;25.634;2023-08-30T12:58:07;9.07;;;7.28;;
12208;SDS011;6167;43.080;25.634;2023-08-30T13:00:34;7.43;;;6.72;;
12208;SDS011;6167;43.080;25.634;2023-08-30T13:03:01;8.20;;;7.50;;
12208;SDS011;6167;43.080;25.634;2023-08-30T13:05:29;8.25;;;7.45;;
12208;SDS011;6167;43.080;25.634;2023-08-30T13:07:58;8.00;;;7.15;;
12208;SDS011;6167;43.080;25.634;2023-08-30T13:10:25;8.13;;;7.53;;
12208;SDS011;6167;43.080;25.634;2023-08-30T13:12:52;9.38;;;7.68;;
12208;SDS011;6167;43.080;25.634;2023-08-30T13:15:18;8.07;;;7.38;;
12208;SDS011;6167;43.080;25.634;2023-08-30T13:17:45;8.70;;;7.80;;
12208;SDS011;6167;43.080;25.634;2023-08-30T13:20:12;8.40;;;7.68;;
12208;SDS011;6167;43.080;25.634;2023-08-30T13:22:39;10.23;;;9.23;;
12208;SDS011;6167;43.080;25.634;2023-08-30T13:25:19;8.27;;;7.47;;
12208;SDS011;6167;43.080;25.634;2023-08-30T13:27:45;10.13;;;7.35;;
12208;SDS011;6167;43.080;25.634;2023-08-30T13:30:13;10.68;;;9.57;;
12208;SDS011;6167;43.080;25.634;2023-08-30T13:32:39;8.80;;;8.00;;
12208;SDS011;6167;43.080;25.634;2023-08-30T13:35:06;9.48;;;7.72;;
12208;SDS011;6167;43.080;25.634;2023-08-30T13:37:33;9.38;;;8.32;;
12208;SDS011;6167;43.080;25.634;2023-08-30T13:39:59;8.75;;;7.75;;
12208;SDS011;6167;43.080;25.634;2023-08-30T13:42:27;19.10;;;8.35;;
12208;SDS011;6167;43.080;25.634;2023-08-30T13:44:54;21.52;;;8.35;;
12208;SDS011;6167;43.080;25.634;2023-08-30T13:47:20;20.58;;;10.38;;
12208;SDS011;6167;43.080;25.634;2023-08-30T13:49:47;27.63;;;10.02;;
12208;SDS011;6167;43.080;25.634;2023-08-30T13:52:14;12.90;;;10.15;;
12208;SDS011;6167;43.080;25.634;2023-08-30T13:54:41;17.75;;;12.10;;
12208;SDS011;6167;43.080;25.634;2023-08-30T13:57:07;21.40;;;13.30;;
12208;SDS011;6167;43.080;25.634;2023-08-30T13:59:35;12.23;;;9.60;;
12208;SDS011;6167;43.080;25.634;2023-08-30T14:02:02;12.07;;;9.90;;
12208;SDS011;6167;43.080;25.634;2023-08-30T14:04:29;11.88;;;9.95;;
12208;SDS011;6167;43.080;25.634;2023-08-30T14:06:57;13.52;;;10.88;;
12208;SDS011;6167;43.080;25.634;2023-08-30T14:09:24;11.15;;;9.93;;
12208;SDS011;6167;43.080;25.634;2023-08-30T14:11:50;11.20;;;9.93;;
12208;SDS011;6167;43.080;25.634;2023-08-30T14:14:17;12.18;;;9.57;;
12208;SDS011;6167;43.080;25.634;2023-08-30T14:16:45;10.55;;;8.95;;
12208;SDS011;6167;43.080;25.634;2023-08-30T14:19:12;11.07;;;8.85;;
12208;SDS011;6167;43.080;25.634;2023-08-30T14:21:39;11.25;;;9.20;;
12208;SDS011;6167;43.080;25.634;2023-08-30T14:24:06;10.05;;;8.60;;
12208;SDS011;6167;43.080;25.634;2023-08-30T14:26:33;12.00;;;9.00;;
12208;SDS011;6167;43.080;25.634;2023-08-30T14:28:59;10.02;;;8.68;;
12208;SDS011;6167;43.080;25.634;2023-08-30T14:31:26;12.95;;;8.82;;
12208;SDS011;6167;43.080;25.634;2023-08-30T14:33:56;10.40;;;9.15;;
12208;SDS011;6167;43.080;25.634;2023-08-30T14:36:23;14.95;;;11.52;;
12208;SDS011;6167;43.080;25.634;2023-08-30T14:38:50;13.32;;;10.77;;
12208;SDS011;6167;43.080;25.634;2023-08-30T14:41:16;9.50;;;8.60;;
12208;SDS011;6167;43.080;25.634;2023-08-30T14:43:43;12.60;;;10.13;;
12208;SDS011;6167;43.080;25.634;2023-08-30T14:46:10;10.30;;;9.27;;
12208;SDS011;6167;43.080;25.634;2023-08-30T14:48:36;10.50;;;9.23;;
12208;SDS011;6167;43.080;25.634;2023-08-30T14:51:05;11.68;;;9.13;;